sensor_id;sensor_type;location;lat;lon;timestamp;temperature;humidity
14934;DHT22;7560;51.364;12.384;2024-03-08T00:04:41;1.70;99.90
14934;DHT22;7560;51.364;12.384;2024-03-08T00:09:43;1.70;99.90
14934;DHT22;7560;51.364;12.384;2024-03-08T00:14:45;1.70;99.90
14934;DHT22;7560;51.364;12.384;2024-03-08T00:19:47;1.70;99.90
14934;DHT22;7560;51.364;12.384;2024-03-08T00:24:50;1.70;99.90
14934;DHT22;7560;51.364;12.384;2024-03-08T00:29:54;1.60;99.90
14934;DHT22;7560;51.364;12.384;2024-03-08T00:34:56;1.60;99.90
14934;DHT22;7560;51.364;12.384;2024-03-08T00:39:58;1.60;99.90
14934;DHT22;7560;51.364;12.384;2024-03-08T00:45:00;1.60;99.90
14934;DHT22;7560;51.364;12.384;2024-03-08T00:50:02;1.60;99.90
14934;DHT22;7560;51.364;12.384;2024-03-08T00:55:07;1.60;99.90
14934;DHT22;7560;51.364;12.384;2024-03-08T01:00:12;1.60;99.90
14934;DHT22;7560;51.364;12.384;2024-03-08T01:05:14;1.50;99.90
14934;DHT22;7560;51.364;12.384;2024-03-08T01:10:16;1.50;99.90
14934;DHT22;7560;51.364;12.384;2024-03-08T01:15:18;1.50;99.90
14934;DHT22;7560;51.364;12.384;2024-03-08T01:20:21;1.50;99.90
14934;DHT22;7560;51.364;12.384;2024-03-08T01:25:23;1.50;99.90
14934;DHT22;7560;51.364;12.384;2024-03-08T01:30:24;1.50;99.90
14934;DHT22;7560;51.364;12.384;2024-03-08T01:35:26;1.40;99.90
14934;DHT22;7560;51.364;12.384;2024-03-08T01:40:29;1.40;99.90
14934;DHT22;7560;51.364;12.384;2024-03-08T01:45:30;1.40;99.90
14934;DHT22;7560;51.364;12.384;2024-03-08T01:50:36;1.40;99.90
14934;DHT22;7560;51.364;12.384;2024-03-08T01:55:38;1.40;99.90
14934;DHT22;7560;51.364;12.384;2024-03-08T02:00:41;1.40;99.90
14934;DHT22;7560;51.364;12.384;2024-03-08T02:05:45;1.40;99.90
14934;DHT22;7560;51.364;12.384;2024-03-08T02:10:47;1.30;99.90
14934;DHT22;7560;51.364;12.384;2024-03-08T02:15:59;1.30;99.90
14934;DHT22;7560;51.364;12.384;2024-03-08T02:21:03;1.30;99.90
14934;DHT22;7560;51.364;12.384;2024-03-08T02:26:05;1.20;99.90
14934;DHT22;7560;51.364;12.384;2024-03-08T02:31:09;1.30;99.90
14934;DHT22;7560;51.364;12.384;2024-03-08T02:36:10;1.20;99.90
14934;DHT22;7560;51.364;12.384;2024-03-08T02:41:14;1.10;99.90
14934;DHT22;7560;51.364;12.384;2024-03-08T02:46:16;1.10;99.90
14934;DHT22;7560;51.364;12.384;2024-03-08T02:51:17;1.00;99.90
14934;DHT22;7560;51.364;12.384;2024-03-08T02:56:19;1.00;99.90
14934;DHT22;7560;51.364;12.384;2024-03-08T03:01:23;0.90;99.90
14934;DHT22;7560;51.364;12.384;2024-03-08T03:06:25;0.90;99.90
14934;DHT22;7560;51.364;12.384;2024-03-08T03:11:27;0.90;99.90
14934;DHT22;7560;51.364;12.384;2024-03-08T03:16:29;0.90;99.90
14934;DHT22;7560;51.364;12.384;2024-03-08T03:21:31;0.90;99.90
14934;DHT22;7560;51.364;12.384;2024-03-08T03:26:33;0.80;99.90
14934;DHT22;7560;51.364;12.384;2024-03-08T03:31:35;0.80;99.90
14934;DHT22;7560;51.364;12.384;2024-03-08T03:36:38;0.80;99.90
14934;DHT22;7560;51.364;12.384;2024-03-08T03:41:43;0.80;99.90
14934;DHT22;7560;51.364;12.384;2024-03-08T03:46:47;0.70;99.90
14934;DHT22;7560;51.364;12.384;2024-03-08T03:51:49;0.70;99.90
14934;DHT22;7560;51.364;12.384;2024-03-08T03:56:51;0.80;99.90
14934;DHT22;7560;51.364;12.384;2024-03-08T04:01:54;0.70;99.90
14934;DHT22;7560;51.364;12.384;2024-03-08T04:06:56;0.70;99.90
14934;DHT22;7560;51.364;12.384;2024-03-08T04:11:58;0.60;99.90
14934;DHT22;7560;51.364;12.384;2024-03-08T04:17:00;0.70;99.90
14934;DHT22;7560;51.364;12.384;2024-03-08T04:22:02;0.60;99.90
14934;DHT22;7560;51.364;12.384;2024-03-08T04:27:04;0.60;99.90
14934;DHT22;7560;51.364;12.384;2024-03-08T04:32:06;0.60;99.90
14934;DHT22;7560;51.364;12.384;2024-03-08T04:37:10;0.60;99.90
14934;DHT22;7560;51.364;12.384;2024-03-08T04:42:15;0.60;99.90
14934;DHT22;7560;51.364;12.384;2024-03-08T04:47:19;0.60;99.90
14934;DHT22;7560;51.364;12.384;2024-03-08T04:52:21;0.60;99.90
14934;DHT22;7560;51.364;12.384;2024-03-08T04:57:23;0.60;99.90
14934;DHT22;7560;51.364;12.384;2024-03-08T05:02:27;0.60;99.90
14934;DHT22;7560;51.364;12.384;2024-03-08T05:07:29;0.60;99.90
14934;DHT22;7560;51.364;12.384;2024-03-08T05:12:30;0.50;99.90
14934;DHT22;7560;51.364;12.384;2024-03-08T05:17:33;0.60;99.90
14934;DHT22;7560;51.364;12.384;2024-03-08T05:22:34;0.50;99.90
14934;DHT22;7560;51.364;12.384;2024-03-08T05:27:37;0.50;99.90
14934;DHT22;7560;51.364;12.384;2024-03-08T05:32:39;0.50;99.90
14934;DHT22;7560;51.364;12.384;2024-03-08T05:37:41;0.50;99.90
14934;DHT22;7560;51.364;12.384;2024-03-08T05:42:42;0.50;99.90
14934;DHT22;7560;51.364;12.384;2024-03-08T05:47:44;0.50;99.90
14934;DHT22;7560;51.364;12.384;2024-03-08T05:52:46;0.50;99.90
14934;DHT22;7560;51.364;12.384;2024-03-08T05:57:51;0.50;99.90
14934;DHT22;7560;51.364;12.384;2024-03-08T06:02:55;0.50;99.90
14934;DHT22;7560;51.364;12.384;2024-03-08T06:07:57;0.50;99.90
14934;DHT22;7560;51.364;12.384;2024-03-08T06:12:59;0.60;99.90
14934;DHT22;7560;51.364;12.384;2024-03-08T06:18:01;0.60;99.90
14934;DHT22;7560;51.364;12.384;2024-03-08T06:23:04;0.70;99.90
14934;DHT22;7560;51.364;12.384;2024-03-08T06:28:06;0.70;99.90
14934;DHT22;7560;51.364;12.384;2024-03-08T06:33:08;0.90;99.90
14934;DHT22;7560;51.364;12.384;2024-03-08T06:38:10;0.90;99.90
14934;DHT22;7560;51.364;12.384;2024-03-08T06:43:13;0.90;99.90
14934;DHT22;7560;51.364;12.384;2024-03-08T06:48:17;1.00;99.90
14934;DHT22;7560;51.364;12.384;2024-03-08T06:53:19;1.10;99.90
14934;DHT22;7560;51.364;12.384;2024-03-08T06:58:25;1.20;99.90
14934;DHT22;7560;51.364;12.384;2024-03-08T07:03:27;1.20;99.90
14934;DHT22;7560;51.364;12.384;2024-03-08T07:08:31;1.40;99.90
14934;DHT22;7560;51.364;12.384;2024-03-08T07:13:34;1.50;99.90
14934;DHT22;7560;51.364;12.384;2024-03-08T07:18:36;1.50;99.90
14934;DHT22;7560;51.364;12.384;2024-03-08T07:23:41;1.60;99.90
14934;DHT22;7560;51.364;12.384;2024-03-08T07:29:09;1.70;99.90
14934;DHT22;7560;51.364;12.384;2024-03-08T07:34:11;1.80;99.90
14934;DHT22;7560;51.364;12.384;2024-03-08T07:39:14;2.00;99.90
14934;DHT22;7560;51.364;12.384;2024-03-08T07:44:16;2.10;99.90
14934;DHT22;7560;51.364;12.384;2024-03-08T07:49:18;2.20;99.90
14934;DHT22;7560;51.364;12.384;2024-03-08T07:54:19;2.30;99.90
14934;DHT22;7560;51.364;12.384;2024-03-08T07:59:21;2.40;99.90
14934;DHT22;7560;51.364;12.384;2024-03-08T08:04:23;2.60;99.90
14934;DHT22;7560;51.364;12.384;2024-03-08T08:09:26;2.70;99.90
14934;DHT22;7560;51.364;12.384;2024-03-08T08:14:36;2.80;99.90
14934;DHT22;7560;51.364;12.384;2024-03-08T08:19:40;2.90;99.90
14934;DHT22;7560;51.364;12.384;2024-03-08T08:24:42;2.90;99.90
14934;DHT22;7560;51.364;12.384;2024-03-08T08:29:43;3.10;99.90
14934;DHT22;7560;51.364;12.384;2024-03-08T08:34:47;3.30;99.90
14934;DHT22;7560;51.364;12.384;2024-03-08T08:39:49;3.40;99.90
14934;DHT22;7560;51.364;12.384;2024-03-08T08:44:52;3.60;99.90
14934;DHT22;7560;51.364;12.384;2024-03-08T08:49:57;3.70;99.90
14934;DHT22;7560;51.364;12.384;2024-03-08T08:54:58;3.90;99.90
14934;DHT22;7560;51.364;12.384;2024-03-08T09:00:01;3.90;99.90
14934;DHT22;7560;51.364;12.384;2024-03-08T09:05:03;4.00;99.90
14934;DHT22;7560;51.364;12.384;2024-03-08T09:10:05;4.20;99.90
14934;DHT22;7560;51.364;12.384;2024-03-08T09:15:18;4.30;99.90
14934;DHT22;7560;51.364;12.384;2024-03-08T09:20:22;4.50;99.90
14934;DHT22;7560;51.364;12.384;2024-03-08T09:25:24;4.60;99.90
14934;DHT22;7560;51.364;12.384;2024-03-08T09:30:27;4.70;99.90
14934;DHT22;7560;51.364;12.384;2024-03-08T09:35:28;4.90;99.90
14934;DHT22;7560;51.364;12.384;2024-03-08T09:40:31;5.10;99.90
14934;DHT22;7560;51.364;12.384;2024-03-08T09:45:36;5.10;99.90
14934;DHT22;7560;51.364;12.384;2024-03-08T09:50:43;5.20;99.90
14934;DHT22;7560;51.364;12.384;2024-03-08T09:55:45;5.30;99.90
14934;DHT22;7560;51.364;12.384;2024-03-08T10:00:47;5.50;99.90
14934;DHT22;7560;51.364;12.384;2024-03-08T10:05:49;5.60;99.90
14934;DHT22;7560;51.364;12.384;2024-03-08T10:10:51;5.70;99.90
14934;DHT22;7560;51.364;12.384;2024-03-08T10:15:53;5.80;99.90
14934;DHT22;7560;51.364;12.384;2024-03-08T10:21:03;6.00;99.90
14934;DHT22;7560;51.364;12.384;2024-03-08T10:26:13;6.10;99.90
14934;DHT22;7560;51.364;12.384;2024-03-08T10:31:18;6.20;99.90
14934;DHT22;7560;51.364;12.384;2024-03-08T10:36:21;6.40;99.90
14934;DHT22;7560;51.364;12.384;2024-03-08T10:41:24;6.50;99.90
14934;DHT22;7560;51.364;12.384;2024-03-08T10:46:56;6.70;99.90
14934;DHT22;7560;51.364;12.384;2024-03-08T10:52:04;6.60;99.90
14934;DHT22;7560;51.364;12.384;2024-03-08T10:57:08;6.70;99.90
14934;DHT22;7560;51.364;12.384;2024-03-08T11:02:12;6.80;99.90
14934;DHT22;7560;51.364;12.384;2024-03-08T11:07:14;7.10;99.90
14934;DHT22;7560;51.364;12.384;2024-03-08T11:12:28;7.10;99.90
14934;DHT22;7560;51.364;12.384;2024-03-08T11:22:42;7.30;99.90
14934;DHT22;7560;51.364;12.384;2024-03-08T11:33:13;7.70;99.90
14934;DHT22;7560;51.364;12.384;2024-03-08T11:38:15;7.70;99.90
14934;DHT22;7560;51.364;12.384;2024-03-08T11:43:18;7.70;99.90
14934;DHT22;7560;51.364;12.384;2024-03-08T11:48:21;7.90;99.90
14934;DHT22;7560;51.364;12.384;2024-03-08T11:53:23;7.90;99.90
14934;DHT22;7560;51.364;12.384;2024-03-08T11:58:26;7.90;99.90
14934;DHT22;7560;51.364;12.384;2024-03-08T12:03:29;8.10;99.90
14934;DHT22;7560;51.364;12.384;2024-03-08T12:08:35;8.10;99.90
14934;DHT22;7560;51.364;12.384;2024-03-08T12:13:37;8.10;99.90
14934;DHT22;7560;51.364;12.384;2024-03-08T12:18:39;8.20;99.90
14934;DHT22;7560;51.364;12.384;2024-03-08T12:23:41;8.20;99.90
14934;DHT22;7560;51.364;12.384;2024-03-08T12:28:45;8.30;99.90
14934;DHT22;7560;51.364;12.384;2024-03-08T12:33:50;8.30;99.90
14934;DHT22;7560;51.364;12.384;2024-03-08T12:38:57;8.40;99.90
14934;DHT22;7560;51.364;12.384;2024-03-08T12:44:01;8.40;99.90
14934;DHT22;7560;51.364;12.384;2024-03-08T12:49:03;8.50;99.90
14934;DHT22;7560;51.364;12.384;2024-03-08T12:54:06;8.50;99.90
14934;DHT22;7560;51.364;12.384;2024-03-08T12:59:09;8.70;99.90
14934;DHT22;7560;51.364;12.384;2024-03-08T13:04:11;8.70;99.90
14934;DHT22;7560;51.364;12.384;2024-03-08T13:09:13;8.80;99.90
14934;DHT22;7560;51.364;12.384;2024-03-08T13:14:15;8.90;99.90
14934;DHT22;7560;51.364;12.384;2024-03-08T13:19:18;8.90;99.90
14934;DHT22;7560;51.364;12.384;2024-03-08T13:24:23;9.10;99.90
14934;DHT22;7560;51.364;12.384;2024-03-08T13:29:26;9.30;99.90
14934;DHT22;7560;51.364;12.384;2024-03-08T13:34:27;9.30;99.90
14934;DHT22;7560;51.364;12.384;2024-03-08T13:39:31;9.50;99.90
14934;DHT22;7560;51.364;12.384;2024-03-08T13:44:48;9.60;99.90
14934;DHT22;7560;51.364;12.384;2024-03-08T13:49:51;9.70;99.90
14934;DHT22;7560;51.364;12.384;2024-03-08T13:54:53;9.80;99.90
14934;DHT22;7560;51.364;12.384;2024-03-08T13:59:55;9.60;99.90
14934;DHT22;7560;51.364;12.384;2024-03-08T14:10:14;9.90;99.90
14934;DHT22;7560;51.364;12.384;2024-03-08T14:15:16;9.90;99.90
14934;DHT22;7560;51.364;12.384;2024-03-08T14:20:18;10.00;99.90
14934;DHT22;7560;51.364;12.384;2024-03-08T14:25:20;10.00;99.90
14934;DHT22;7560;51.364;12.384;2024-03-08T14:30:25;10.10;99.90
14934;DHT22;7560;51.364;12.384;2024-03-08T14:35:40;10.30;99.90
14934;DHT22;7560;51.364;12.384;2024-03-08T14:40:43;10.20;99.90
14934;DHT22;7560;51.364;12.384;2024-03-08T14:45:48;10.00;99.90
14934;DHT22;7560;51.364;12.384;2024-03-08T14:50:50;10.10;99.90
14934;DHT22;7560;51.364;12.384;2024-03-08T14:55:52;10.20;99.90
14934;DHT22;7560;51.364;12.384;2024-03-08T15:00:54;10.20;99.90
14934;DHT22;7560;51.364;12.384;2024-03-08T15:06:00;10.30;99.90
14934;DHT22;7560;51.364;12.384;2024-03-08T15:11:03;10.50;99.90
14934;DHT22;7560;51.364;12.384;2024-03-08T15:16:06;10.60;99.90
14934;DHT22;7560;51.364;12.384;2024-03-08T15:21:08;10.40;99.90
14934;DHT22;7560;51.364;12.384;2024-03-08T15:26:11;10.50;99.90
14934;DHT22;7560;51.364;12.384;2024-03-08T15:31:13;10.60;99.90
14934;DHT22;7560;51.364;12.384;2024-03-08T15:36:15;10.70;99.90
14934;DHT22;7560;51.364;12.384;2024-03-08T15:41:18;10.60;99.90
14934;DHT22;7560;51.364;12.384;2024-03-08T15:46:22;10.60;99.90
14934;DHT22;7560;51.364;12.384;2024-03-08T15:51:25;10.40;99.90
14934;DHT22;7560;51.364;12.384;2024-03-08T15:56:27;10.30;99.90
14934;DHT22;7560;51.364;12.384;2024-03-08T16:01:29;10.20;99.90
14934;DHT22;7560;51.364;12.384;2024-03-08T16:06:32;10.10;99.90
14934;DHT22;7560;51.364;12.384;2024-03-08T16:11:34;10.00;99.90
14934;DHT22;7560;51.364;12.384;2024-03-08T16:16:39;9.80;99.90
14934;DHT22;7560;51.364;12.384;2024-03-08T16:21:44;9.70;99.90
14934;DHT22;7560;51.364;12.384;2024-03-08T16:26:54;9.60;99.90
14934;DHT22;7560;51.364;12.384;2024-03-08T16:31:56;9.50;99.90
14934;DHT22;7560;51.364;12.384;2024-03-08T16:36:59;9.40;99.90
14934;DHT22;7560;51.364;12.384;2024-03-08T16:42:04;9.20;99.90
14934;DHT22;7560;51.364;12.384;2024-03-08T16:47:10;9.10;99.90
14934;DHT22;7560;51.364;12.384;2024-03-08T16:52:13;9.00;99.90
14934;DHT22;7560;51.364;12.384;2024-03-08T16:57:16;8.80;99.90
14934;DHT22;7560;51.364;12.384;2024-03-08T17:02:18;8.70;99.90
14934;DHT22;7560;51.364;12.384;2024-03-08T17:07:20;8.60;99.90
14934;DHT22;7560;51.364;12.384;2024-03-08T17:12:25;8.40;99.90
14934;DHT22;7560;51.364;12.384;2024-03-08T17:17:29;8.30;99.90
14934;DHT22;7560;51.364;12.384;2024-03-08T17:22:34;8.20;99.90
14934;DHT22;7560;51.364;12.384;2024-03-08T17:27:37;8.10;99.90
14934;DHT22;7560;51.364;12.384;2024-03-08T17:32:41;7.90;99.90
14934;DHT22;7560;51.364;12.384;2024-03-08T17:37:43;7.90;99.90
14934;DHT22;7560;51.364;12.384;2024-03-08T17:42:58;7.80;99.90
14934;DHT22;7560;51.364;12.384;2024-03-08T17:48:14;7.70;99.90
14934;DHT22;7560;51.364;12.384;2024-03-08T17:53:20;7.60;99.90
14934;DHT22;7560;51.364;12.384;2024-03-08T17:58:22;7.50;99.90
14934;DHT22;7560;51.364;12.384;2024-03-08T18:03:26;7.50;99.90
14934;DHT22;7560;51.364;12.384;2024-03-08T18:08:31;7.50;99.90
14934;DHT22;7560;51.364;12.384;2024-03-08T18:13:34;7.40;99.90
14934;DHT22;7560;51.364;12.384;2024-03-08T18:18:36;7.20;99.90
14934;DHT22;7560;51.364;12.384;2024-03-08T18:23:40;7.30;99.90
14934;DHT22;7560;51.364;12.384;2024-03-08T18:28:42;7.20;99.90
14934;DHT22;7560;51.364;12.384;2024-03-08T18:33:48;7.00;99.90
14934;DHT22;7560;51.364;12.384;2024-03-08T18:38:50;7.10;99.90
14934;DHT22;7560;51.364;12.384;2024-03-08T18:43:54;6.90;99.90
14934;DHT22;7560;51.364;12.384;2024-03-08T18:48:59;6.90;99.90
14934;DHT22;7560;51.364;12.384;2024-03-08T18:54:01;6.80;99.90
14934;DHT22;7560;51.364;12.384;2024-03-08T18:59:05;6.80;99.90
14934;DHT22;7560;51.364;12.384;2024-03-08T19:04:11;6.80;99.90
14934;DHT22;7560;51.364;12.384;2024-03-08T19:09:14;6.80;99.90
14934;DHT22;7560;51.364;12.384;2024-03-08T19:14:16;6.60;99.90
14934;DHT22;7560;51.364;12.384;2024-03-08T19:19:20;6.50;99.90
14934;DHT22;7560;51.364;12.384;2024-03-08T19:24:23;6.50;99.90
14934;DHT22;7560;51.364;12.384;2024-03-08T19:29:25;6.40;99.90
14934;DHT22;7560;51.364;12.384;2024-03-08T19:34:27;6.30;99.90
14934;DHT22;7560;51.364;12.384;2024-03-08T19:39:29;6.20;99.90
14934;DHT22;7560;51.364;12.384;2024-03-08T19:44:32;6.10;99.90
14934;DHT22;7560;51.364;12.384;2024-03-08T19:49:34;6.10;99.90
14934;DHT22;7560;51.364;12.384;2024-03-08T19:54:37;6.00;99.90
14934;DHT22;7560;51.364;12.384;2024-03-08T19:59:39;6.00;99.90
14934;DHT22;7560;51.364;12.384;2024-03-08T20:04:46;6.00;99.90
14934;DHT22;7560;51.364;12.384;2024-03-08T20:09:48;5.80;99.90
14934;DHT22;7560;51.364;12.384;2024-03-08T20:14:50;5.80;99.90
14934;DHT22;7560;51.364;12.384;2024-03-08T20:19:52;5.80;99.90
14934;DHT22;7560;51.364;12.384;2024-03-08T20:24:54;5.70;99.90
14934;DHT22;7560;51.364;12.384;2024-03-08T20:29:56;5.60;99.90
14934;DHT22;7560;51.364;12.384;2024-03-08T20:34:59;5.60;99.90
14934;DHT22;7560;51.364;12.384;2024-03-08T20:40:01;5.60;99.90
14934;DHT22;7560;51.364;12.384;2024-03-08T20:45:04;5.60;99.90
14934;DHT22;7560;51.364;12.384;2024-03-08T20:50:06;5.50;99.90
14934;DHT22;7560;51.364;12.384;2024-03-08T20:55:14;5.40;99.90
14934;DHT22;7560;51.364;12.384;2024-03-08T21:00:22;5.40;99.90
14934;DHT22;7560;51.364;12.384;2024-03-08T21:05:43;5.30;99.90
14934;DHT22;7560;51.364;12.384;2024-03-08T21:10:46;5.20;99.90
14934;DHT22;7560;51.364;12.384;2024-03-08T21:15:48;5.20;99.90
14934;DHT22;7560;51.364;12.384;2024-03-08T21:20:50;5.10;99.90
14934;DHT22;7560;51.364;12.384;2024-03-08T21:25:54;5.10;99.90
14934;DHT22;7560;51.364;12.384;2024-03-08T21:30:56;5.10;99.90
14934;DHT22;7560;51.364;12.384;2024-03-08T21:36:00;4.90;99.90
14934;DHT22;7560;51.364;12.384;2024-03-08T21:41:03;5.00;99.90
14934;DHT22;7560;51.364;12.384;2024-03-08T21:46:09;4.90;99.90
14934;DHT22;7560;51.364;12.384;2024-03-08T21:51:13;4.80;99.90
14934;DHT22;7560;51.364;12.384;2024-03-08T21:56:15;4.80;99.90
14934;DHT22;7560;51.364;12.384;2024-03-08T22:01:19;4.70;99.90
14934;DHT22;7560;51.364;12.384;2024-03-08T22:06:21;4.70;99.90
14934;DHT22;7560;51.364;12.384;2024-03-08T22:11:23;4.60;99.90
14934;DHT22;7560;51.364;12.384;2024-03-08T22:16:24;4.60;99.90
14934;DHT22;7560;51.364;12.384;2024-03-08T22:21:26;4.60;99.90
14934;DHT22;7560;51.364;12.384;2024-03-08T22:26:30;4.50;99.90
14934;DHT22;7560;51.364;12.384;2024-03-08T22:31:34;4.50;99.90
14934;DHT22;7560;51.364;12.384;2024-03-08T22:36:36;4.40;99.90
14934;DHT22;7560;51.364;12.384;2024-03-08T22:41:38;4.40;99.90
14934;DHT22;7560;51.364;12.384;2024-03-08T22:46:40;4.30;99.90
14934;DHT22;7560;51.364;12.384;2024-03-08T22:51:42;4.30;99.90
14934;DHT22;7560;51.364;12.384;2024-03-08T22:56:44;4.20;99.90
14934;DHT22;7560;51.364;12.384;2024-03-08T23:01:47;4.10;99.90
14934;DHT22;7560;51.364;12.384;2024-03-08T23:06:49;4.10;99.90
14934;DHT22;7560;51.364;12.384;2024-03-08T23:11:51;4.00;99.90
14934;DHT22;7560;51.364;12.384;2024-03-08T23:16:53;4.00;99.90
14934;DHT22;7560;51.364;12.384;2024-03-08T23:21:58;3.90;99.90
14934;DHT22;7560;51.364;12.384;2024-03-08T23:27:03;3.90;99.90
14934;DHT22;7560;51.364;12.384;2024-03-08T23:32:05;3.80;99.90
14934;DHT22;7560;51.364;12.384;2024-03-08T23:37:07;3.80;99.90
14934;DHT22;7560;51.364;12.384;2024-03-08T23:42:09;3.70;99.90
14934;DHT22;7560;51.364;12.384;2024-03-08T23:47:12;3.60;99.90
14934;DHT22;7560;51.364;12.384;2024-03-08T23:52:14;3.60;99.90
14934;DHT22;7560;51.364;12.384;2024-03-08T23:57:16;3.50;99.90
